Wigton, United Kingdom
Current Conditions -  °F | °C
As of 2:50 PM on Saturday 27 Dec 2014 (Local Time) from EGOM Reporting Station
Broken Clouds Broken Clouds  
Wind Chill: 26°   Ceiling: 1000
Heat Index: 34°   Visibility: 6mi
Dew Point: 34°   Wind: 9mph
Humidity: 100%   Direction: 10°N
Pressure: 29.77"   Gusts: NA
Location:  54.82°N, 3.16°W
Report Text: EGOM 271450Z AUTO 01008KT 9999 BKN010/// BKN060/// 01/01 Q1008
Loading
Personal Weather Stations






























Interactive Weather Map New forecast layout! Learn more

10-Day Weather Forecast

Advertisements
Track Severe Weather on mobile